sensor_id;sensor_type;location;lat;lon;timestamp;temperature;humidity
5394;DHT22;2720;52.396;10.064;2023-05-16T00:00:19;10.30;99.90
5394;DHT22;2720;52.396;10.064;2023-05-16T00:02:52;10.30;99.90
5394;DHT22;2720;52.396;10.064;2023-05-16T00:05:32;10.30;99.90
5394;DHT22;2720;52.396;10.064;2023-05-16T00:08:16;10.30;99.90
5394;DHT22;2720;52.396;10.064;2023-05-16T00:11:07;10.30;99.90
5394;DHT22;2720;52.396;10.064;2023-05-16T00:13:54;10.40;99.90
5394;DHT22;2720;52.396;10.064;2023-05-16T00:17:04;10.30;99.90
5394;DHT22;2720;52.396;10.064;2023-05-16T00:20:05;10.20;99.90
5394;DHT22;2720;52.396;10.064;2023-05-16T00:23:10;10.20;99.90
5394;DHT22;2720;52.396;10.064;2023-05-16T00:26:10;10.20;99.90
5394;DHT22;2720;52.396;10.064;2023-05-16T00:29:07;10.20;99.90
5394;DHT22;2720;52.396;10.064;2023-05-16T00:32:17;10.10;99.90
5394;DHT22;2720;52.396;10.064;2023-05-16T00:35:19;10.10;99.90
5394;DHT22;2720;52.396;10.064;2023-05-16T00:38:26;10.10;99.90
5394;DHT22;2720;52.396;10.064;2023-05-16T00:41:34;10.10;99.90
5394;DHT22;2720;52.396;10.064;2023-05-16T00:47:50;10.10;99.90
5394;DHT22;2720;52.396;10.064;2023-05-16T00:50:54;10.10;99.90
5394;DHT22;2720;52.396;10.064;2023-05-16T00:54:07;10.10;99.90
5394;DHT22;2720;52.396;10.064;2023-05-16T01:00:19;10.10;99.90
5394;DHT22;2720;52.396;10.064;2023-05-16T01:02:46;10.10;99.90
5394;DHT22;2720;52.396;10.064;2023-05-16T01:05:13;10.10;99.90
5394;DHT22;2720;52.396;10.064;2023-05-16T01:07:40;10.10;99.90
5394;DHT22;2720;52.396;10.064;2023-05-16T01:10:07;10.10;99.90
5394;DHT22;2720;52.396;10.064;2023-05-16T01:12:39;10.20;99.90
5394;DHT22;2720;52.396;10.064;2023-05-16T01:15:09;10.20;99.90
5394;DHT22;2720;52.396;10.064;2023-05-16T01:17:49;10.20;99.90
5394;DHT22;2720;52.396;10.064;2023-05-16T01:20:24;10.10;99.90
5394;DHT22;2720;52.396;10.064;2023-05-16T01:23:04;10.10;99.90
5394;DHT22;2720;52.396;10.064;2023-05-16T01:25:43;10.10;99.90
5394;DHT22;2720;52.396;10.064;2023-05-16T01:28:15;10.20;99.90
5394;DHT22;2720;52.396;10.064;2023-05-16T01:30:43;10.20;99.90
5394;DHT22;2720;52.396;10.064;2023-05-16T01:33:10;10.20;99.90
5394;DHT22;2720;52.396;10.064;2023-05-16T01:35:42;10.20;99.90
5394;DHT22;2720;52.396;10.064;2023-05-16T01:38:15;10.10;99.90
5394;DHT22;2720;52.396;10.064;2023-05-16T01:40:49;10.10;99.90
5394;DHT22;2720;52.396;10.064;2023-05-16T01:43:24;10.10;99.90
5394;DHT22;2720;52.396;10.064;2023-05-16T01:46:00;10.10;99.90
5394;DHT22;2720;52.396;10.064;2023-05-16T01:48:34;10.10;99.90
5394;DHT22;2720;52.396;10.064;2023-05-16T01:51:03;10.10;99.90
5394;DHT22;2720;52.396;10.064;2023-05-16T01:53:35;10.10;99.90
5394;DHT22;2720;52.396;10.064;2023-05-16T01:56:03;10.10;99.90
5394;DHT22;2720;52.396;10.064;2023-05-16T01:58:33;10.20;99.90
5394;DHT22;2720;52.396;10.064;2023-05-16T02:01:02;10.20;99.90
5394;DHT22;2720;52.396;10.064;2023-05-16T02:03:29;10.20;99.90
5394;DHT22;2720;52.396;10.064;2023-05-16T02:05:56;10.20;99.90
5394;DHT22;2720;52.396;10.064;2023-05-16T02:08:24;10.20;99.90
5394;DHT22;2720;52.396;10.064;2023-05-16T02:10:51;10.20;99.90
5394;DHT22;2720;52.396;10.064;2023-05-16T02:13:18;10.20;99.90
5394;DHT22;2720;52.396;10.064;2023-05-16T02:15:46;10.20;99.90
5394;DHT22;2720;52.396;10.064;2023-05-16T02:18:13;10.20;99.90
5394;DHT22;2720;52.396;10.064;2023-05-16T02:20:41;10.20;99.90
5394;DHT22;2720;52.396;10.064;2023-05-16T02:23:08;10.20;99.90
5394;DHT22;2720;52.396;10.064;2023-05-16T02:25:35;10.20;99.90
5394;DHT22;2720;52.396;10.064;2023-05-16T02:28:02;10.20;99.90
5394;DHT22;2720;52.396;10.064;2023-05-16T02:30:29;10.20;99.90
5394;DHT22;2720;52.396;10.064;2023-05-16T02:32:57;10.20;99.90
5394;DHT22;2720;52.396;10.064;2023-05-16T02:35:24;10.20;99.90
5394;DHT22;2720;52.396;10.064;2023-05-16T02:37:51;10.20;99.90
5394;DHT22;2720;52.396;10.064;2023-05-16T02:40:18;10.20;99.90
5394;DHT22;2720;52.396;10.064;2023-05-16T02:42:45;10.20;99.90
5394;DHT22;2720;52.396;10.064;2023-05-16T02:45:12;10.20;99.90
5394;DHT22;2720;52.396;10.064;2023-05-16T02:47:39;10.20;99.90
5394;DHT22;2720;52.396;10.064;2023-05-16T02:50:08;10.20;99.90
5394;DHT22;2720;52.396;10.064;2023-05-16T02:52:35;10.20;99.90
5394;DHT22;2720;52.396;10.064;2023-05-16T02:55:02;10.20;99.90
5394;DHT22;2720;52.396;10.064;2023-05-16T02:57:30;10.20;99.90
5394;DHT22;2720;52.396;10.064;2023-05-16T02:59:56;10.20;99.90
5394;DHT22;2720;52.396;10.064;2023-05-16T03:02:24;10.20;99.90
5394;DHT22;2720;52.396;10.064;2023-05-16T03:04:50;10.10;99.90
5394;DHT22;2720;52.396;10.064;2023-05-16T03:07:19;10.00;99.90
5394;DHT22;2720;52.396;10.064;2023-05-16T03:09:46;10.00;99.90
5394;DHT22;2720;52.396;10.064;2023-05-16T03:12:13;9.90;99.90
5394;DHT22;2720;52.396;10.064;2023-05-16T03:14:40;9.90;99.90
5394;DHT22;2720;52.396;10.064;2023-05-16T03:17:06;9.80;99.90
5394;DHT22;2720;52.396;10.064;2023-05-16T03:19:34;9.70;99.90
5394;DHT22;2720;52.396;10.064;2023-05-16T03:22:01;9.80;99.90
5394;DHT22;2720;52.396;10.064;2023-05-16T03:24:30;9.70;99.90
5394;DHT22;2720;52.396;10.064;2023-05-16T03:26:56;9.80;99.90
5394;DHT22;2720;52.396;10.064;2023-05-16T03:29:24;9.80;99.90
5394;DHT22;2720;52.396;10.064;2023-05-16T03:31:51;9.80;99.90
5394;DHT22;2720;52.396;10.064;2023-05-16T03:34:18;9.70;99.90
5394;DHT22;2720;52.396;10.064;2023-05-16T03:36:47;9.70;99.90
5394;DHT22;2720;52.396;10.064;2023-05-16T03:39:14;9.60;99.90
5394;DHT22;2720;52.396;10.064;2023-05-16T03:41:43;9.50;99.90
5394;DHT22;2720;52.396;10.064;2023-05-16T03:44:10;9.40;99.90
5394;DHT22;2720;52.396;10.064;2023-05-16T03:46:36;9.40;99.90
5394;DHT22;2720;52.396;10.064;2023-05-16T03:49:03;9.30;99.90
5394;DHT22;2720;52.396;10.064;2023-05-16T03:51:30;9.30;99.90
5394;DHT22;2720;52.396;10.064;2023-05-16T03:53:57;9.30;99.90
5394;DHT22;2720;52.396;10.064;2023-05-16T03:56:24;9.30;99.90
5394;DHT22;2720;52.396;10.064;2023-05-16T03:58:53;9.40;99.90
5394;DHT22;2720;52.396;10.064;2023-05-16T04:01:20;9.40;99.90
5394;DHT22;2720;52.396;10.064;2023-05-16T04:03:47;9.40;99.90
5394;DHT22;2720;52.396;10.064;2023-05-16T04:06:15;9.50;99.90
5394;DHT22;2720;52.396;10.064;2023-05-16T04:08:42;9.50;99.90
5394;DHT22;2720;52.396;10.064;2023-05-16T04:11:10;9.50;99.90
5394;DHT22;2720;52.396;10.064;2023-05-16T04:13:37;9.60;99.90
5394;DHT22;2720;52.396;10.064;2023-05-16T04:16:06;9.60;99.90
5394;DHT22;2720;52.396;10.064;2023-05-16T04:18:33;9.60;99.90
5394;DHT22;2720;52.396;10.064;2023-05-16T04:21:00;9.60;99.90
5394;DHT22;2720;52.396;10.064;2023-05-16T04:23:27;9.70;99.90
5394;DHT22;2720;52.396;10.064;2023-05-16T04:25:54;9.70;99.90
5394;DHT22;2720;52.396;10.064;2023-05-16T04:28:21;9.70;99.90
5394;DHT22;2720;52.396;10.064;2023-05-16T04:30:48;9.80;99.90
5394;DHT22;2720;52.396;10.064;2023-05-16T04:33:17;9.80;99.90
5394;DHT22;2720;52.396;10.064;2023-05-16T04:35:44;9.70;99.90
5394;DHT22;2720;52.396;10.064;2023-05-16T04:38:11;9.80;99.90
5394;DHT22;2720;52.396;10.064;2023-05-16T04:40:38;9.80;99.90
5394;DHT22;2720;52.396;10.064;2023-05-16T04:43:06;9.70;99.90
5394;DHT22;2720;52.396;10.064;2023-05-16T04:45:33;9.70;99.90
5394;DHT22;2720;52.396;10.064;2023-05-16T04:48:00;9.70;99.90
5394;DHT22;2720;52.396;10.064;2023-05-16T04:50:29;9.70;99.90
5394;DHT22;2720;52.396;10.064;2023-05-16T04:52:55;9.70;99.90
5394;DHT22;2720;52.396;10.064;2023-05-16T04:55:22;9.70;99.90
5394;DHT22;2720;52.396;10.064;2023-05-16T04:57:49;9.60;99.90
5394;DHT22;2720;52.396;10.064;2023-05-16T05:00:16;9.50;99.90
5394;DHT22;2720;52.396;10.064;2023-05-16T05:02:44;9.50;99.90
5394;DHT22;2720;52.396;10.064;2023-05-16T05:05:11;9.40;99.90
5394;DHT22;2720;52.396;10.064;2023-05-16T05:07:39;9.30;99.90
5394;DHT22;2720;52.396;10.064;2023-05-16T05:10:08;9.30;99.90
5394;DHT22;2720;52.396;10.064;2023-05-16T05:12:36;9.40;99.90
5394;DHT22;2720;52.396;10.064;2023-05-16T05:15:03;9.40;99.90
5394;DHT22;2720;52.396;10.064;2023-05-16T05:17:31;9.50;99.90
5394;DHT22;2720;52.396;10.064;2023-05-16T05:19:58;9.50;99.90
5394;DHT22;2720;52.396;10.064;2023-05-16T05:22:25;9.50;99.90
5394;DHT22;2720;52.396;10.064;2023-05-16T05:24:53;9.60;99.90
5394;DHT22;2720;52.396;10.064;2023-05-16T05:27:20;9.60;99.90
5394;DHT22;2720;52.396;10.064;2023-05-16T05:29:47;9.60;99.90
5394;DHT22;2720;52.396;10.064;2023-05-16T05:32:14;9.60;99.90
5394;DHT22;2720;52.396;10.064;2023-05-16T05:34:41;9.60;99.90
5394;DHT22;2720;52.396;10.064;2023-05-16T05:37:08;9.50;99.90
5394;DHT22;2720;52.396;10.064;2023-05-16T05:39:35;9.40;99.90
5394;DHT22;2720;52.396;10.064;2023-05-16T05:42:04;9.30;99.90
5394;DHT22;2720;52.396;10.064;2023-05-16T05:44:31;9.30;99.90
5394;DHT22;2720;52.396;10.064;2023-05-16T05:46:59;9.30;99.90
5394;DHT22;2720;52.396;10.064;2023-05-16T05:49:26;9.40;99.90
5394;DHT22;2720;52.396;10.064;2023-05-16T05:51:53;9.50;99.90
5394;DHT22;2720;52.396;10.064;2023-05-16T05:54:20;9.50;99.90
5394;DHT22;2720;52.396;10.064;2023-05-16T05:56:47;9.60;99.90
5394;DHT22;2720;52.396;10.064;2023-05-16T05:59:16;9.70;99.90
5394;DHT22;2720;52.396;10.064;2023-05-16T06:01:43;9.90;99.90
5394;DHT22;2720;52.396;10.064;2023-05-16T06:04:10;9.90;99.90
5394;DHT22;2720;52.396;10.064;2023-05-16T06:06:37;10.10;99.90
5394;DHT22;2720;52.396;10.064;2023-05-16T06:09:04;10.10;99.90
5394;DHT22;2720;52.396;10.064;2023-05-16T06:11:31;10.10;99.90
5394;DHT22;2720;52.396;10.064;2023-05-16T06:13:58;10.30;99.90
5394;DHT22;2720;52.396;10.064;2023-05-16T06:16:26;10.40;99.90
5394;DHT22;2720;52.396;10.064;2023-05-16T06:18:54;10.30;99.90
5394;DHT22;2720;52.396;10.064;2023-05-16T06:21:21;10.30;99.90
5394;DHT22;2720;52.396;10.064;2023-05-16T06:23:48;10.40;99.90
5394;DHT22;2720;52.396;10.064;2023-05-16T06:26:14;10.50;99.90
5394;DHT22;2720;52.396;10.064;2023-05-16T06:28:41;10.50;99.90
5394;DHT22;2720;52.396;10.064;2023-05-16T06:31:08;10.50;99.90
5394;DHT22;2720;52.396;10.064;2023-05-16T06:33:37;10.70;99.90
5394;DHT22;2720;52.396;10.064;2023-05-16T06:36:04;10.80;99.90
5394;DHT22;2720;52.396;10.064;2023-05-16T06:38:31;10.80;99.90
5394;DHT22;2720;52.396;10.064;2023-05-16T06:40:58;10.60;99.90
5394;DHT22;2720;52.396;10.064;2023-05-16T06:43:25;10.60;99.90
5394;DHT22;2720;52.396;10.064;2023-05-16T06:45:52;10.50;99.90
5394;DHT22;2720;52.396;10.064;2023-05-16T06:48:19;10.40;99.90
5394;DHT22;2720;52.396;10.064;2023-05-16T06:50:48;10.30;99.90
5394;DHT22;2720;52.396;10.064;2023-05-16T06:53:16;10.20;99.90
5394;DHT22;2720;52.396;10.064;2023-05-16T06:55:43;10.10;99.90
5394;DHT22;2720;52.396;10.064;2023-05-16T06:58:10;10.00;99.90
5394;DHT22;2720;52.396;10.064;2023-05-16T07:00:37;9.90;99.90
5394;DHT22;2720;52.396;10.064;2023-05-16T07:03:04;10.00;99.90
5394;DHT22;2720;52.396;10.064;2023-05-16T07:05:31;10.40;99.90
5394;DHT22;2720;52.396;10.064;2023-05-16T07:08:00;10.90;99.90
5394;DHT22;2720;52.396;10.064;2023-05-16T07:10:27;11.20;99.90
5394;DHT22;2720;52.396;10.064;2023-05-16T07:12:54;11.10;99.90
5394;DHT22;2720;52.396;10.064;2023-05-16T07:15:22;10.80;99.90
5394;DHT22;2720;52.396;10.064;2023-05-16T07:17:49;10.80;99.90
5394;DHT22;2720;52.396;10.064;2023-05-16T07:20:16;10.80;99.90
5394;DHT22;2720;52.396;10.064;2023-05-16T07:22:43;10.70;99.90
5394;DHT22;2720;52.396;10.064;2023-05-16T07:25:11;10.70;99.90
5394;DHT22;2720;52.396;10.064;2023-05-16T07:27:41;10.70;99.90
5394;DHT22;2720;52.396;10.064;2023-05-16T07:30:10;10.80;99.90
5394;DHT22;2720;52.396;10.064;2023-05-16T07:32:37;11.00;99.90
5394;DHT22;2720;52.396;10.064;2023-05-16T07:35:05;11.20;99.90
5394;DHT22;2720;52.396;10.064;2023-05-16T07:37:32;11.40;99.90
5394;DHT22;2720;52.396;10.064;2023-05-16T07:39:59;11.40;99.90
5394;DHT22;2720;52.396;10.064;2023-05-16T07:42:27;11.40;99.90
5394;DHT22;2720;52.396;10.064;2023-05-16T07:44:54;11.30;99.90
5394;DHT22;2720;52.396;10.064;2023-05-16T07:47:21;11.20;99.90
5394;DHT22;2720;52.396;10.064;2023-05-16T07:49:49;11.40;99.90
5394;DHT22;2720;52.396;10.064;2023-05-16T07:52:15;11.60;99.90
5394;DHT22;2720;52.396;10.064;2023-05-16T07:54:43;11.70;99.90
5394;DHT22;2720;52.396;10.064;2023-05-16T07:57:12;11.80;99.90
5394;DHT22;2720;52.396;10.064;2023-05-16T07:59:40;11.80;99.90
5394;DHT22;2720;52.396;10.064;2023-05-16T08:02:07;12.00;99.90
5394;DHT22;2720;52.396;10.064;2023-05-16T08:04:34;12.20;99.90
5394;DHT22;2720;52.396;10.064;2023-05-16T08:07:02;12.10;99.90
5394;DHT22;2720;52.396;10.064;2023-05-16T08:09:29;12.00;99.90
5394;DHT22;2720;52.396;10.064;2023-05-16T08:11:56;11.80;99.90
5394;DHT22;2720;52.396;10.064;2023-05-16T08:14:28;11.70;99.90
5394;DHT22;2720;52.396;10.064;2023-05-16T08:16:57;11.70;99.90
5394;DHT22;2720;52.396;10.064;2023-05-16T08:19:24;12.10;99.90
5394;DHT22;2720;52.396;10.064;2023-05-16T08:21:51;12.30;99.90
5394;DHT22;2720;52.396;10.064;2023-05-16T08:24:18;12.20;99.90
5394;DHT22;2720;52.396;10.064;2023-05-16T08:26:45;11.90;99.90
5394;DHT22;2720;52.396;10.064;2023-05-16T08:29:12;11.80;99.90
5394;DHT22;2720;52.396;10.064;2023-05-16T08:31:39;11.80;99.90
5394;DHT22;2720;52.396;10.064;2023-05-16T08:34:07;11.90;99.90
5394;DHT22;2720;52.396;10.064;2023-05-16T08:36:35;12.10;99.90
5394;DHT22;2720;52.396;10.064;2023-05-16T08:39:02;12.30;99.90
5394;DHT22;2720;52.396;10.064;2023-05-16T08:41:29;12.50;99.90
5394;DHT22;2720;52.396;10.064;2023-05-16T08:43:57;12.50;99.90
5394;DHT22;2720;52.396;10.064;2023-05-16T08:46:24;12.50;99.90
5394;DHT22;2720;52.396;10.064;2023-05-16T08:48:58;12.60;99.90
5394;DHT22;2720;52.396;10.064;2023-05-16T08:51:27;12.60;99.90
5394;DHT22;2720;52.396;10.064;2023-05-16T08:54:02;12.80;99.90
5394;DHT22;2720;52.396;10.064;2023-05-16T08:56:29;13.00;99.90
5394;DHT22;2720;52.396;10.064;2023-05-16T08:58:58;13.10;99.90
5394;DHT22;2720;52.396;10.064;2023-05-16T09:01:25;13.00;99.90
5394;DHT22;2720;52.396;10.064;2023-05-16T09:03:52;12.80;99.90
5394;DHT22;2720;52.396;10.064;2023-05-16T09:06:20;12.90;99.90
5394;DHT22;2720;52.396;10.064;2023-05-16T09:08:49;12.90;99.90
5394;DHT22;2720;52.396;10.064;2023-05-16T09:11:16;12.80;99.90
5394;DHT22;2720;52.396;10.064;2023-05-16T09:13:43;12.60;99.90
5394;DHT22;2720;52.396;10.064;2023-05-16T09:16:11;12.50;99.90
5394;DHT22;2720;52.396;10.064;2023-05-16T09:18:39;12.70;99.90
5394;DHT22;2720;52.396;10.064;2023-05-16T09:21:06;12.90;99.90
5394;DHT22;2720;52.396;10.064;2023-05-16T09:23:33;13.30;99.90
5394;DHT22;2720;52.396;10.064;2023-05-16T09:26:02;13.40;99.90
5394;DHT22;2720;52.396;10.064;2023-05-16T09:28:32;13.10;99.90
5394;DHT22;2720;52.396;10.064;2023-05-16T09:30:59;13.10;99.90
5394;DHT22;2720;52.396;10.064;2023-05-16T09:33:27;13.20;99.90
5394;DHT22;2720;52.396;10.064;2023-05-16T09:35:55;13.40;99.90
5394;DHT22;2720;52.396;10.064;2023-05-16T09:38:24;13.60;99.90
5394;DHT22;2720;52.396;10.064;2023-05-16T09:40:52;13.70;99.90
5394;DHT22;2720;52.396;10.064;2023-05-16T09:43:25;13.70;99.90
5394;DHT22;2720;52.396;10.064;2023-05-16T09:45:52;13.90;99.90
5394;DHT22;2720;52.396;10.064;2023-05-16T09:48:20;13.80;99.90
5394;DHT22;2720;52.396;10.064;2023-05-16T09:50:50;13.80;99.90
5394;DHT22;2720;52.396;10.064;2023-05-16T09:53:23;13.90;99.90
5394;DHT22;2720;52.396;10.064;2023-05-16T09:55:59;14.10;99.90
5394;DHT22;2720;52.396;10.064;2023-05-16T09:58:29;14.40;99.90
5394;DHT22;2720;52.396;10.064;2023-05-16T10:00:57;14.50;99.90
5394;DHT22;2720;52.396;10.064;2023-05-16T10:03:24;14.20;99.90
5394;DHT22;2720;52.396;10.064;2023-05-16T10:05:52;13.80;99.90
5394;DHT22;2720;52.396;10.064;2023-05-16T10:08:20;13.70;99.90
5394;DHT22;2720;52.396;10.064;2023-05-16T10:10:50;13.80;99.90
5394;DHT22;2720;52.396;10.064;2023-05-16T10:13:19;14.10;99.90
5394;DHT22;2720;52.396;10.064;2023-05-16T10:15:49;14.30;99.90
5394;DHT22;2720;52.396;10.064;2023-05-16T10:18:17;14.30;99.90
5394;DHT22;2720;52.396;10.064;2023-05-16T10:20:45;14.30;99.90
5394;DHT22;2720;52.396;10.064;2023-05-16T10:23:17;14.60;99.90
5394;DHT22;2720;52.396;10.064;2023-05-16T10:25:46;14.50;99.90
5394;DHT22;2720;52.396;10.064;2023-05-16T10:28:14;14.30;99.90
5394;DHT22;2720;52.396;10.064;2023-05-16T10:30:43;14.00;99.90
5394;DHT22;2720;52.396;10.064;2023-05-16T10:33:14;13.90;99.90
5394;DHT22;2720;52.396;10.064;2023-05-16T10:35:42;14.10;99.90
5394;DHT22;2720;52.396;10.064;2023-05-16T10:38:10;14.60;99.90
5394;DHT22;2720;52.396;10.064;2023-05-16T10:40:38;15.10;99.90
5394;DHT22;2720;52.396;10.064;2023-05-16T10:43:07;15.50;99.90
5394;DHT22;2720;52.396;10.064;2023-05-16T10:45:38;15.80;99.80
5394;DHT22;2720;52.396;10.064;2023-05-16T10:48:06;15.70;99.90
5394;DHT22;2720;52.396;10.064;2023-05-16T10:50:37;15.70;99.80
5394;DHT22;2720;52.396;10.064;2023-05-16T10:53:15;15.80;97.90
5394;DHT22;2720;52.396;10.064;2023-05-16T10:55:45;15.80;98.10
5394;DHT22;2720;52.396;10.064;2023-05-16T10:58:18;16.10;97.70
5394;DHT22;2720;52.396;10.064;2023-05-16T11:00:48;16.30;97.60
5394;DHT22;2720;52.396;10.064;2023-05-16T11:03:21;16.10;98.60
5394;DHT22;2720;52.396;10.064;2023-05-16T11:05:59;15.70;98.20
5394;DHT22;2720;52.396;10.064;2023-05-16T11:08:27;15.00;99.00
5394;DHT22;2720;52.396;10.064;2023-05-16T11:14:02;14.50;99.80
5394;DHT22;2720;52.396;10.064;2023-05-16T11:16:29;14.90;97.20
5394;DHT22;2720;52.396;10.064;2023-05-16T11:19:03;15.50;97.40
5394;DHT22;2720;52.396;10.064;2023-05-16T11:22:05;15.90;97.00
5394;DHT22;2720;52.396;10.064;2023-05-16T11:24:34;16.10;97.70
5394;DHT22;2720;52.396;10.064;2023-05-16T11:27:02;16.20;96.30
5394;DHT22;2720;52.396;10.064;2023-05-16T11:29:30;16.50;95.40
5394;DHT22;2720;52.396;10.064;2023-05-16T11:31:58;16.80;95.40
5394;DHT22;2720;52.396;10.064;2023-05-16T11:34:25;17.00;94.70
5394;DHT22;2720;52.396;10.064;2023-05-16T11:36:52;17.20;96.70
5394;DHT22;2720;52.396;10.064;2023-05-16T11:39:22;17.60;95.20
5394;DHT22;2720;52.396;10.064;2023-05-16T11:41:50;17.90;95.40
5394;DHT22;2720;52.396;10.064;2023-05-16T11:44:17;18.00;95.30
5394;DHT22;2720;52.396;10.064;2023-05-16T11:46:44;18.30;94.40
5394;DHT22;2720;52.396;10.064;2023-05-16T11:49:12;18.10;93.70
5394;DHT22;2720;52.396;10.064;2023-05-16T11:51:40;17.60;94.70
5394;DHT22;2720;52.396;10.064;2023-05-16T11:54:08;16.80;97.00
5394;DHT22;2720;52.396;10.064;2023-05-16T11:56:38;16.80;97.20
5394;DHT22;2720;52.396;10.064;2023-05-16T11:59:05;16.50;97.40
5394;DHT22;2720;52.396;10.064;2023-05-16T12:01:33;16.00;98.00
5394;DHT22;2720;52.396;10.064;2023-05-16T12:04:01;15.60;98.20
5394;DHT22;2720;52.396;10.064;2023-05-16T12:06:29;15.50;98.40
5394;DHT22;2720;52.396;10.064;2023-05-16T12:08:56;15.30;97.40
5394;DHT22;2720;52.396;10.064;2023-05-16T12:11:23;15.60;97.50
5394;DHT22;2720;52.396;10.064;2023-05-16T12:13:52;16.40;97.10
5394;DHT22;2720;52.396;10.064;2023-05-16T12:16:19;17.40;95.10
5394;DHT22;2720;52.396;10.064;2023-05-16T12:18:46;17.70;94.10
5394;DHT22;2720;52.396;10.064;2023-05-16T12:21:14;17.20;93.20
5394;DHT22;2720;52.396;10.064;2023-05-16T12:23:42;16.60;94.80
5394;DHT22;2720;52.396;10.064;2023-05-16T12:26:09;16.20;94.70
5394;DHT22;2720;52.396;10.064;2023-05-16T12:28:36;15.70;95.20
5394;DHT22;2720;52.396;10.064;2023-05-16T12:31:10;15.50;95.80
5394;DHT22;2720;52.396;10.064;2023-05-16T12:33:44;15.10;96.30
5394;DHT22;2720;52.396;10.064;2023-05-16T12:36:12;14.80;97.00
5394;DHT22;2720;52.396;10.064;2023-05-16T12:38:40;15.00;97.50
5394;DHT22;2720;52.396;10.064;2023-05-16T12:41:07;14.90;97.30
5394;DHT22;2720;52.396;10.064;2023-05-16T12:43:34;15.00;95.90
5394;DHT22;2720;52.396;10.064;2023-05-16T12:46:01;15.00;95.60
5394;DHT22;2720;52.396;10.064;2023-05-16T12:48:32;14.90;95.40
5394;DHT22;2720;52.396;10.064;2023-05-16T12:51:10;14.90;95.50
5394;DHT22;2720;52.396;10.064;2023-05-16T12:53:41;14.90;96.90
5394;DHT22;2720;52.396;10.064;2023-05-16T12:56:08;15.00;98.00
5394;DHT22;2720;52.396;10.064;2023-05-16T12:58:36;14.90;98.50
5394;DHT22;2720;52.396;10.064;2023-05-16T13:01:03;14.80;98.60
5394;DHT22;2720;52.396;10.064;2023-05-16T13:03:32;14.60;98.60
5394;DHT22;2720;52.396;10.064;2023-05-16T13:06:00;14.30;98.40
5394;DHT22;2720;52.396;10.064;2023-05-16T13:08:28;14.20;98.90
5394;DHT22;2720;52.396;10.064;2023-05-16T13:10:55;14.70;98.90
5394;DHT22;2720;52.396;10.064;2023-05-16T13:13:22;15.40;98.80
5394;DHT22;2720;52.396;10.064;2023-05-16T13:15:49;15.90;98.40
5394;DHT22;2720;52.396;10.064;2023-05-16T13:18:16;16.30;97.70
5394;DHT22;2720;52.396;10.064;2023-05-16T13:20:45;16.90;98.10
5394;DHT22;2720;52.396;10.064;2023-05-16T13:23:11;17.20;96.10
5394;DHT22;2720;52.396;10.064;2023-05-16T13:25:38;17.60;96.10
5394;DHT22;2720;52.396;10.064;2023-05-16T13:28:05;18.00;94.80
5394;DHT22;2720;52.396;10.064;2023-05-16T13:30:33;17.80;95.50
5394;DHT22;2720;52.396;10.064;2023-05-16T13:33:00;17.30;95.40
5394;DHT22;2720;52.396;10.064;2023-05-16T13:35:27;17.20;94.40
5394;DHT22;2720;52.396;10.064;2023-05-16T13:37:55;17.30;94.00
5394;DHT22;2720;52.396;10.064;2023-05-16T13:40:22;17.40;95.30
5394;DHT22;2720;52.396;10.064;2023-05-16T13:42:49;17.70;94.10
5394;DHT22;2720;52.396;10.064;2023-05-16T13:45:16;17.50;94.10
5394;DHT22;2720;52.396;10.064;2023-05-16T13:47:43;17.60;93.10
5394;DHT22;2720;52.396;10.064;2023-05-16T13:50:10;17.50;94.70
5394;DHT22;2720;52.396;10.064;2023-05-16T13:52:38;17.30;94.30
5394;DHT22;2720;52.396;10.064;2023-05-16T13:55:06;17.30;94.70
5394;DHT22;2720;52.396;10.064;2023-05-16T13:57:34;17.70;94.70
5394;DHT22;2720;52.396;10.064;2023-05-16T14:00:01;18.60;94.70
5394;DHT22;2720;52.396;10.064;2023-05-16T14:02:30;19.00;94.20
5394;DHT22;2720;52.396;10.064;2023-05-16T14:04:57;18.60;93.60
5394;DHT22;2720;52.396;10.064;2023-05-16T14:07:24;18.20;94.10
5394;DHT22;2720;52.396;10.064;2023-05-16T14:09:51;18.20;93.90
5394;DHT22;2720;52.396;10.064;2023-05-16T14:12:19;18.30;93.00
5394;DHT22;2720;52.396;10.064;2023-05-16T14:14:46;18.70;93.10
5394;DHT22;2720;52.396;10.064;2023-05-16T14:17:13;18.50;92.00
5394;DHT22;2720;52.396;10.064;2023-05-16T14:19:40;18.20;92.70
5394;DHT22;2720;52.396;10.064;2023-05-16T14:22:07;18.10;92.50
5394;DHT22;2720;52.396;10.064;2023-05-16T14:24:34;17.70;92.90
5394;DHT22;2720;52.396;10.064;2023-05-16T14:27:01;17.40;92.70
5394;DHT22;2720;52.396;10.064;2023-05-16T14:29:29;16.50;94.20
5394;DHT22;2720;52.396;10.064;2023-05-16T14:31:56;16.20;94.10
5394;DHT22;2720;52.396;10.064;2023-05-16T14:34:23;15.80;94.80
5394;DHT22;2720;52.396;10.064;2023-05-16T14:36:50;16.00;95.70
5394;DHT22;2720;52.396;10.064;2023-05-16T14:39:17;16.30;95.00
5394;DHT22;2720;52.396;10.064;2023-05-16T14:41:44;16.30;95.50
5394;DHT22;2720;52.396;10.064;2023-05-16T14:44:11;16.20;96.00
5394;DHT22;2720;52.396;10.064;2023-05-16T14:46:39;16.50;95.50
5394;DHT22;2720;52.396;10.064;2023-05-16T14:49:06;16.70;94.90
5394;DHT22;2720;52.396;10.064;2023-05-16T14:51:33;16.90;94.60
5394;DHT22;2720;52.396;10.064;2023-05-16T14:54:01;16.20;94.40
5394;DHT22;2720;52.396;10.064;2023-05-16T14:56:27;16.00;96.40
5394;DHT22;2720;52.396;10.064;2023-05-16T14:58:54;16.60;95.30
5394;DHT22;2720;52.396;10.064;2023-05-16T15:01:21;16.80;94.90
5394;DHT22;2720;52.396;10.064;2023-05-16T15:03:50;17.00;94.70
5394;DHT22;2720;52.396;10.064;2023-05-16T15:06:17;17.10;94.90
5394;DHT22;2720;52.396;10.064;2023-05-16T15:08:44;17.40;95.40
5394;DHT22;2720;52.396;10.064;2023-05-16T15:11:11;17.90;94.60
5394;DHT22;2720;52.396;10.064;2023-05-16T15:13:38;17.50;94.10
5394;DHT22;2720;52.396;10.064;2023-05-16T15:16:05;16.80;93.70
5394;DHT22;2720;52.396;10.064;2023-05-16T15:18:32;16.60;93.90
5394;DHT22;2720;52.396;10.064;2023-05-16T15:21:00;16.40;95.40
5394;DHT22;2720;52.396;10.064;2023-05-16T15:23:27;16.80;94.80
5394;DHT22;2720;52.396;10.064;2023-05-16T15:25:54;17.30;95.10
5394;DHT22;2720;52.396;10.064;2023-05-16T15:28:21;17.80;93.60
5394;DHT22;2720;52.396;10.064;2023-05-16T15:30:49;17.90;93.70
5394;DHT22;2720;52.396;10.064;2023-05-16T15:33:16;18.30;94.00
5394;DHT22;2720;52.396;10.064;2023-05-16T15:35:43;18.60;92.50
5394;DHT22;2720;52.396;10.064;2023-05-16T15:38:11;18.70;93.10
5394;DHT22;2720;52.396;10.064;2023-05-16T15:40:38;18.70;92.00
5394;DHT22;2720;52.396;10.064;2023-05-16T15:43:05;18.00;92.20
5394;DHT22;2720;52.396;10.064;2023-05-16T15:45:32;17.30;92.70
5394;DHT22;2720;52.396;10.064;2023-05-16T15:47:59;16.80;93.80
5394;DHT22;2720;52.396;10.064;2023-05-16T15:50:26;16.40;94.40
5394;DHT22;2720;52.396;10.064;2023-05-16T15:52:53;16.00;95.20
5394;DHT22;2720;52.396;10.064;2023-05-16T15:55:24;15.50;95.50
5394;DHT22;2720;52.396;10.064;2023-05-16T15:57:51;15.10;96.00
5394;DHT22;2720;52.396;10.064;2023-05-16T16:00:21;14.80;95.90
5394;DHT22;2720;52.396;10.064;2023-05-16T16:02:48;14.50;96.20
5394;DHT22;2720;52.396;10.064;2023-05-16T16:05:17;14.30;97.10
5394;DHT22;2720;52.396;10.064;2023-05-16T16:07:44;14.30;96.90
5394;DHT22;2720;52.396;10.064;2023-05-16T16:10:11;14.50;97.40
5394;DHT22;2720;52.396;10.064;2023-05-16T16:12:40;14.90;96.90